createdAt,value
2022-12-20T00:01:52.088Z,98260.00
2022-12-20T00:06:54.029Z,98253.53
2022-12-20T00:11:55.825Z,98255.06
2022-12-20T00:16:57.791Z,98236.94
2022-12-20T00:21:59.644Z,98244.59
2022-12-20T00:27:01.542Z,98234.44
2022-12-20T00:32:03.359Z,98224.34
2022-12-20T00:37:05.517Z,98213.56
2022-12-20T00:42:07.347Z,98229.44
2022-12-20T00:47:09.182Z,98213.88
2022-12-20T00:52:11.087Z,98222.50
2022-12-20T00:57:13.912Z,98217.97
2022-12-20T01:02:16.033Z,98220.31
2022-12-20T01:07:18.118Z,98220.53
2022-12-20T01:12:20.131Z,98221.78
2022-12-20T01:17:21.937Z,98209.91
2022-12-20T01:22:23.710Z,98224.44
2022-12-20T01:27:25.640Z,98211.13
2022-12-20T01:32:27.473Z,98203.56
2022-12-20T01:37:29.783Z,98215.22
2022-12-20T01:42:31.637Z,98220.34
2022-12-20T01:47:36.659Z,98204.78
2022-12-20T01:52:45.379Z,98212.38
2022-12-20T01:57:57.142Z,98209.50
2022-12-20T02:03:03.031Z,98221.38
2022-12-20T02:08:06.134Z,98204.59
2022-12-20T02:13:19.825Z,98196.06
2022-12-20T02:18:29.574Z,98198.00
2022-12-20T02:23:46.210Z,98189.06
2022-12-20T02:29:26.040Z,98188.56
2022-12-20T02:34:33.397Z,98182.19
2022-12-20T02:39:38.191Z,98183.72
2022-12-20T02:45:05.598Z,98179.50
2022-12-20T02:50:09.937Z,98174.38
2022-12-20T02:55:12.163Z,98178.19
2022-12-20T03:00:18.307Z,98173.69
2022-12-20T03:05:23.412Z,98163.25
2022-12-20T03:10:26.361Z,98164.31
2022-12-20T03:15:28.517Z,98159.00
2022-12-20T03:20:32.897Z,98157.41
2022-12-20T03:25:34.728Z,98161.59
2022-12-20T03:30:38.279Z,98162.56
2022-12-20T03:35:40.484Z,98163.34
2022-12-20T03:40:44.087Z,98158.69
2022-12-20T03:45:48.507Z,98151.88
2022-12-20T03:50:50.484Z,98149.31
2022-12-20T03:55:52.324Z,98144.19
2022-12-20T04:00:54.239Z,98142.00
2022-12-20T04:06:16.789Z,98142.94
2022-12-20T04:11:19.345Z,98145.31
2022-12-20T04:16:43.109Z,98133.88
2022-12-20T04:21:45.976Z,98131.91
2022-12-20T04:26:49.669Z,98127.50
2022-12-20T04:31:52.366Z,98128.44
2022-12-20T04:36:55.157Z,98120.00
2022-12-20T04:42:11.794Z,98121.88
2022-12-20T04:47:13.613Z,98122.97
2022-12-20T04:52:34.140Z,98111.44
2022-12-20T04:57:35.982Z,98100.78
2022-12-20T05:02:40.299Z,98092.50
2022-12-20T05:07:45.935Z,98081.66
2022-12-20T05:12:48.112Z,98085.63
2022-12-20T05:17:59.885Z,98089.00
2022-12-20T05:23:29.065Z,98078.16
2022-12-20T05:28:41.674Z,98087.63
2022-12-20T05:33:43.720Z,98075.69
2022-12-20T05:38:47.254Z,98049.09
2022-12-20T05:43:52.843Z,98066.84
2022-12-20T05:48:54.762Z,98075.69
2022-12-20T05:53:56.872Z,98072.44
2022-12-20T05:59:14.429Z,98070.81
2022-12-20T06:04:18.586Z,98077.09
2022-12-20T06:09:21.954Z,98074.16
2022-12-20T06:14:31.371Z,98072.53
2022-12-20T06:19:33.388Z,98075.78
2022-12-20T06:24:36.126Z,98078.25
2022-12-20T06:29:39.031Z,98074.88
2022-12-20T06:34:45.256Z,98073.56
2022-12-20T06:39:47.200Z,98072.66
2022-12-20T06:44:49.785Z,98072.28
2022-12-20T06:49:51.725Z,98058.72
2022-12-20T06:54:57.310Z,98053.50
2022-12-20T06:59:59.483Z,98057.50
2022-12-20T07:05:01.330Z,98060.53
2022-12-20T07:10:03.414Z,98062.06
2022-12-20T07:15:05.567Z,98070.69
2022-12-20T07:20:13.249Z,98052.72
2022-12-20T07:25:16.246Z,98044.56
2022-12-20T07:30:19.630Z,98034.19
2022-12-20T07:35:21.479Z,98045.63
2022-12-20T07:40:24.275Z,98042.34
2022-12-20T07:45:26.574Z,98042.91
2022-12-20T07:50:29.684Z,98039.63
2022-12-20T07:55:31.811Z,98041.38
2022-12-20T08:00:34.166Z,98043.22
2022-12-20T08:05:39.065Z,98044.03
2022-12-20T08:10:41.543Z,98025.75
2022-12-20T08:15:43.384Z,98040.72
2022-12-20T08:20:45.161Z,98040.41
2022-12-20T08:25:46.965Z,98042.66
2022-12-20T08:30:48.831Z,98045.25
2022-12-20T08:35:57.771Z,98032.25
2022-12-20T08:41:07.992Z,98042.25
2022-12-20T08:46:12.179Z,98043.28
2022-12-20T08:51:14.167Z,98038.44
2022-12-20T08:56:17.601Z,98035.25
2022-12-20T09:01:21.999Z,98030.94
2022-12-20T09:06:24.133Z,98039.25
2022-12-20T09:11:26.991Z,98040.75
2022-12-20T09:16:31.752Z,98033.84
2022-12-20T09:21:34.561Z,98025.28
2022-12-20T09:26:36.469Z,98042.91
2022-12-20T09:31:38.282Z,98047.13
2022-12-20T09:36:40.187Z,98041.75
2022-12-20T09:41:44.253Z,98044.31
2022-12-20T09:46:55.163Z,98042.53
2022-12-20T09:52:15.441Z,98043.09
2022-12-20T09:57:38.516Z,98027.78
2022-12-20T10:03:04.187Z,98033.75
2022-12-20T10:08:25.656Z,98033.44
2022-12-20T10:13:46.642Z,98029.53
2022-12-20T10:18:51.456Z,98018.25
2022-12-20T10:24:05.378Z,98014.59
2022-12-20T10:29:07.686Z,98012.41
2022-12-20T10:34:09.456Z,97999.66
2022-12-20T10:39:11.317Z,97994.78
2022-12-20T10:44:25.514Z,97999.78
2022-12-20T10:49:32.075Z,97982.84
2022-12-20T10:54:47.725Z,97961.13
2022-12-20T10:59:56.691Z,97952.16
2022-12-20T11:05:10.740Z,97947.56
2022-12-20T11:10:25.094Z,97935.31
2022-12-20T11:15:29.589Z,97929.72
2022-12-20T11:21:16.090Z,97928.69
2022-12-20T11:26:25.042Z,97919.91
2022-12-20T11:31:51.734Z,97913.50
2022-12-20T11:36:56.611Z,97913.25
2022-12-20T11:42:29.574Z,97899.50
2022-12-20T11:48:09.867Z,97887.97
2022-12-20T11:53:32.362Z,97882.69
2022-12-20T11:58:50.251Z,97884.13
2022-12-20T12:04:05.369Z,97876.28
2022-12-20T12:09:40.215Z,97860.16
2022-12-20T12:14:50.313Z,97840.94
2022-12-20T12:19:55.801Z,97833.75
2022-12-20T12:25:03.265Z,97841.06
2022-12-20T12:30:05.921Z,97842.38
2022-12-20T12:35:32.020Z,97842.88
2022-12-20T12:40:53.160Z,97846.88
2022-12-20T12:45:58.658Z,97840.22
2022-12-20T12:51:02.693Z,97836.72
2022-12-20T12:56:45.292Z,97834.78
2022-12-20T13:01:56.711Z,97813.88
2022-12-20T13:07:02.571Z,97804.63
2022-12-20T13:12:38.365Z,97807.72
2022-12-20T13:18:17.202Z,97805.09
2022-12-20T13:23:19.380Z,97794.41
2022-12-20T13:28:24.407Z,97788.91
2022-12-20T13:33:40.245Z,97782.91
2022-12-20T13:38:48.066Z,97785.47
2022-12-20T13:43:51.731Z,97794.91
2022-12-20T13:48:57.195Z,97781.28
2022-12-20T13:54:02.387Z,97774.47
2022-12-20T13:59:21.337Z,97783.28
2022-12-20T14:04:27.179Z,97787.78
2022-12-20T14:09:31.282Z,97787.84
2022-12-20T14:14:43.729Z,97779.78
2022-12-20T14:19:45.507Z,97761.88
2022-12-20T14:24:47.515Z,97762.47
2022-12-20T14:29:49.857Z,97761.69
2022-12-20T14:34:52.762Z,97756.22
2022-12-20T14:40:18.040Z,97759.97
2022-12-20T14:45:26.791Z,97759.06
2022-12-20T14:50:38.408Z,97746.91
2022-12-20T14:55:46.416Z,97765.59
2022-12-20T15:01:02.239Z,97754.13
2022-12-20T15:06:04.234Z,97755.63
2022-12-20T15:11:09.002Z,97762.16
2022-12-20T15:16:30.945Z,97769.09
2022-12-20T15:21:42.992Z,97763.22
2022-12-20T15:26:46.287Z,97759.56
2022-12-20T15:31:49.789Z,97753.88
2022-12-20T15:36:51.636Z,97748.91
2022-12-20T15:41:53.491Z,97741.31
2022-12-20T15:46:55.389Z,97732.94
2022-12-20T15:51:58.068Z,97722.22
2022-12-20T15:57:03.185Z,97729.53
2022-12-20T16:02:21.089Z,97724.13
2022-12-20T16:07:23.256Z,97735.78
2022-12-20T16:12:29.663Z,97747.34
2022-12-20T16:17:31.497Z,97736.78
2022-12-20T16:22:33.298Z,97733.53
2022-12-20T16:27:35.158Z,97736.75
2022-12-20T16:32:36.931Z,97738.25
2022-12-20T16:37:39.294Z,97739.91
2022-12-20T16:42:41.633Z,97732.72
2022-12-20T16:47:43.460Z,97717.41
2022-12-20T16:52:46.576Z,97711.84
2022-12-20T16:57:49.206Z,97725.53
2022-12-20T17:02:51.673Z,97721.88
2022-12-20T17:07:53.770Z,97710.22
2022-12-20T17:12:55.597Z,97700.63
2022-12-20T17:17:58.249Z,97694.94
2022-12-20T17:23:00.112Z,97683.44
2022-12-20T17:28:01.901Z,97693.31
2022-12-20T17:33:03.781Z,97696.56
2022-12-20T17:38:07.676Z,97686.13
2022-12-20T17:43:12.150Z,97684.91
2022-12-20T17:48:14.217Z,97683.00
2022-12-20T17:53:16.017Z,97688.44
2022-12-20T17:58:17.815Z,97682.31
2022-12-20T18:04:01.078Z,97669.84
2022-12-20T18:08:41.766Z,97667.41
2022-12-20T18:13:47.685Z,97678.13
2022-12-20T18:18:49.651Z,97667.28
2022-12-20T18:23:52.475Z,97681.09
2022-12-20T18:28:57.132Z,97667.84
2022-12-20T18:33:59.615Z,97668.78
2022-12-20T18:39:05.402Z,97659.97
2022-12-20T18:44:07.409Z,97642.25
2022-12-20T18:49:09.569Z,97656.34
2022-12-20T18:54:12.947Z,97645.34
2022-12-20T18:59:14.768Z,97635.47
2022-12-20T19:04:22.467Z,97621.41
2022-12-20T19:09:26.343Z,97629.41
2022-12-20T19:14:28.146Z,97637.13
2022-12-20T19:19:29.930Z,97645.28
2022-12-20T19:24:31.770Z,97656.47
2022-12-20T19:29:33.572Z,97654.56
2022-12-20T19:34:35.367Z,97654.97
2022-12-20T19:39:37.217Z,97652.41
2022-12-20T19:44:39.486Z,97654.72
2022-12-20T19:49:41.306Z,97659.22
2022-12-20T19:54:43.624Z,97639.47
2022-12-20T19:59:49.707Z,97637.53
2022-12-20T20:04:55.685Z,97618.75
2022-12-20T20:09:57.484Z,97619.72
2022-12-20T20:14:59.308Z,97608.00
2022-12-20T20:20:01.267Z,97622.34
2022-12-20T20:25:03.079Z,97618.16
2022-12-20T20:30:07.082Z,97628.69
2022-12-20T20:35:11.010Z,97616.41
2022-12-20T20:40:14.200Z,97618.84
2022-12-20T20:45:16.880Z,97631.97
2022-12-20T20:50:18.960Z,97638.88
2022-12-20T20:55:20.745Z,97638.03
2022-12-20T21:00:22.703Z,97638.47
2022-12-20T21:10:46.491Z,97635.59
2022-12-20T21:15:48.453Z,97633.34
2022-12-20T21:20:50.357Z,97622.91
2022-12-20T21:25:56.792Z,97629.41
2022-12-20T21:31:03.847Z,97620.59
2022-12-20T21:36:08.848Z,97611.94
2022-12-20T21:41:13.810Z,97604.75
2022-12-20T21:46:16.114Z,97599.19
2022-12-20T21:51:20.517Z,97589.47
2022-12-20T21:56:24.313Z,97579.75
2022-12-20T22:01:27.744Z,97572.28
2022-12-20T22:06:31.457Z,97586.91
2022-12-20T22:11:34.346Z,97579.88
2022-12-20T22:16:36.312Z,97601.66
2022-12-20T22:21:38.276Z,97613.16
2022-12-20T22:26:41.142Z,97599.47
2022-12-20T22:31:43.062Z,97609.50
2022-12-20T22:36:44.865Z,97598.81
2022-12-20T22:41:46.670Z,97595.84
2022-12-20T22:46:48.552Z,97597.75
2022-12-20T22:52:04.355Z,97597.47
2022-12-20T22:57:10.443Z,97595.84
2022-12-20T23:02:12.467Z,97595.69
2022-12-20T23:07:14.361Z,97589.19
2022-12-20T23:12:34.808Z,97585.00
2022-12-20T23:17:36.592Z,97580.41
2022-12-20T23:22:38.404Z,97596.78
2022-12-20T23:27:42.288Z,97587.44
2022-12-20T23:32:44.503Z,97576.88
2022-12-20T23:37:47.522Z,97570.53
2022-12-20T23:42:52.393Z,97565.53
2022-12-20T23:47:54.196Z,97572.03
2022-12-20T23:52:55.963Z,97570.78
2022-12-20T23:57:57.728Z,97572.03
